Time;durP1;ratioP1;P1;durP2;ratioP2;P2;SDS_P1;SDS_P2;PMS_P1;PMS_P2;Temp;Humidity;BMP_temperature;BMP_pressure;BME280_temperature;BME280_humidity;BME280_pressure;Samples;Min_cycle;Max_cycle;Signal;HPM_P1;HPM_P2
2024/01/31 00:01:37;;;;;;;5.18;1.48;;;5.10;99.90;;;;;;5042140;28;20435;-69
2024/01/31 00:04:04;;;;;;;3.10;0.93;;;5.10;99.90;;;;;;5052821;28;20110;-69
2024/01/31 00:06:30;;;;;;;7.85;1.25;;;5.10;99.90;;;;;;5047984;28;20045;-69
2024/01/31 00:08:57;;;;;;;3.72;0.85;;;5.10;99.90;;;;;;5037463;28;20465;-70
2024/01/31 00:11:25;;;;;;;5.22;0.98;;;5.10;99.90;;;;;;5023633;28;20029;-70
2024/01/31 00:13:51;;;;;;;6.35;1.15;;;5.10;99.90;;;;;;5032821;28;20496;-69
2024/01/31 00:16:17;;;;;;;9.38;1.20;;;5.10;99.90;;;;;;5035369;28;20068;-70
2024/01/31 00:18:43;;;;;;;7.13;1.20;;;5.10;99.90;;;;;;5047683;28;20549;-69
2024/01/31 00:21:08;;;;;;;8.93;1.35;;;5.20;99.90;;;;;;5052464;28;20037;-69
2024/01/31 00:23:34;;;;;;;7.95;1.50;;;5.10;99.90;;;;;;5038365;28;20037;-70
2024/01/31 00:26:00;;;;;;;5.78;1.13;;;5.10;99.90;;;;;;5037044;28;20069;-69
2024/01/31 00:28:26;;;;;;;5.47;1.50;;;5.10;99.90;;;;;;5025906;28;20045;-70
2024/01/31 00:30:51;;;;;;;9.15;1.20;;;5.10;99.90;;;;;;5034734;28;20092;-70
2024/01/31 00:33:17;;;;;;;3.40;1.10;;;5.20;99.90;;;;;;5041467;28;20049;-69
2024/01/31 00:35:43;;;;;;;9.48;1.30;;;5.10;99.90;;;;;;5033854;28;20493;-70
2024/01/31 00:38:08;;;;;;;5.75;1.10;;;5.20;99.90;;;;;;5047024;28;20041;-70
2024/01/31 00:40:34;;;;;;;5.13;1.17;;;5.10;99.90;;;;;;5031515;28;20481;-70
2024/01/31 00:43:00;;;;;;;7.28;1.08;;;5.10;99.90;;;;;;5041219;28;20656;-70
2024/01/31 00:45:25;;;;;;;7.05;0.98;;;5.20;99.90;;;;;;5031211;28;20754;-69
2024/01/31 00:47:51;;;;;;;4.63;1.00;;;5.20;99.90;;;;;;5025722;28;20033;-69
2024/01/31 00:50:17;;;;;;;7.65;1.10;;;5.10;99.90;;;;;;5031936;28;20128;-70
2024/01/31 00:52:42;;;;;;;4.72;1.08;;;5.10;99.90;;;;;;5022296;28;20798;-69
2024/01/31 00:55:08;;;;;;;5.20;1.00;;;5.10;99.90;;;;;;5034885;28;20040;-70
2024/01/31 00:57:34;;;;;;;5.57;0.88;;;5.10;99.90;;;;;;5030930;28;20103;-70
2024/01/31 01:00:04;;;;;;;5.57;1.02;;;5.10;99.90;;;;;;5048217;28;20041;-71
2024/01/31 01:02:30;;;;;;;;;;;5.10;99.90;;;;;;5036330;28;20048;-71
2024/01/31 01:04:56;;;;;;;10.50;1.20;;;5.10;99.90;;;;;;5048689;28;19924;-70
2024/01/31 01:07:21;;;;;;;6.55;1.40;;;5.10;99.90;;;;;;5054577;28;20045;-71
2024/01/31 01:09:47;;;;;;;5.82;1.00;;;5.10;99.90;;;;;;5024561;28;20416;-70
2024/01/31 01:12:13;;;;;;;6.05;1.23;;;5.00;99.90;;;;;;5047016;28;20359;-69
2024/01/31 01:14:38;;;;;;;7.78;1.20;;;5.10;99.90;;;;;;5048835;28;20537;-70
2024/01/31 01:17:04;;;;;;;4.65;1.10;;;5.00;99.90;;;;;;5018218;28;20424;-70
2024/01/31 01:19:29;;;;;;;10.63;2.20;;;5.10;99.90;;;;;;5052662;28;20063;-69
2024/01/31 01:21:56;;;;;;;5.28;1.40;;;5.10;99.90;;;;;;5052788;28;20034;-70
2024/01/31 01:24:22;;;;;;;8.10;1.10;;;5.10;99.90;;;;;;5044877;28;20040;-70
2024/01/31 01:26:48;;;;;;;8.50;1.20;;;5.10;99.90;;;;;;5037978;28;20501;-70
2024/01/31 01:29:13;;;;;;;4.47;1.15;;;5.10;99.90;;;;;;5047454;28;20609;-70
2024/01/31 01:31:39;;;;;;;6.28;1.08;;;5.00;99.90;;;;;;5032454;28;20057;-70
2024/01/31 01:34:04;;;;;;;6.00;1.13;;;5.00;99.90;;;;;;5039392;28;20763;-70
2024/01/31 01:36:30;;;;;;;5.00;0.85;;;5.00;99.90;;;;;;5045506;28;20116;-69
2024/01/31 01:38:55;;;;;;;5.35;1.20;;;5.00;99.90;;;;;;5031240;28;20220;-69
2024/01/31 01:41:21;;;;;;;4.32;1.00;;;5.00;99.90;;;;;;5045707;28;20037;-69
2024/01/31 01:43:50;;;;;;;8.40;1.45;;;5.00;99.90;;;;;;5035091;28;20048;-70
2024/01/31 01:46:20;;;;;;;5.28;1.23;;;5.00;99.90;;;;;;5035355;28;20048;-70
2024/01/31 01:48:46;;;;;;;4.03;0.88;;;5.00;99.90;;;;;;5031658;28;20038;-69
2024/01/31 01:51:23;;;;;;;10.18;1.45;;;5.00;99.90;;;;;;5042260;28;20818;-70
2024/01/31 01:53:50;;;;;;;5.45;1.20;;;5.00;99.90;;;;;;5031718;28;20045;-69
2024/01/31 01:56:16;;;;;;;5.88;0.82;;;5.00;99.90;;;;;;5043104;28;20123;-70
2024/01/31 01:58:42;;;;;;;5.28;1.15;;;5.00;99.90;;;;;;5041737;28;20167;-70
2024/01/31 02:01:09;;;;;;;6.00;1.08;;;5.10;99.90;;;;;;5037965;28;20048;-70
2024/01/31 02:03:35;;;;;;;3.17;1.00;;;5.00;99.90;;;;;;5041060;28;20116;-70
2024/01/31 02:06:01;;;;;;;9.48;1.10;;;5.00;99.90;;;;;;5031889;28;20164;-69
2024/01/31 02:08:28;;;;;;;4.72;1.10;;;5.00;99.90;;;;;;5039227;28;20063;-70
2024/01/31 02:10:54;;;;;;;4.75;0.88;;;5.10;99.90;;;;;;5035176;28;20120;-70
2024/01/31 02:13:20;;;;;;;5.22;1.10;;;5.00;99.90;;;;;;5023615;28;20124;-70
2024/01/31 02:15:58;;;;;;;5.88;1.10;;;5.00;99.90;;;;;;5047642;28;20116;-70
2024/01/31 02:18:27;;;;;;;4.47;1.02;;;5.00;99.90;;;;;;5031862;28;20037;-70
2024/01/31 02:20:53;;;;;;;4.82;1.08;;;5.00;99.90;;;;;;5044204;28;20045;-70
2024/01/31 02:23:18;;;;;;;2.28;0.70;;;5.00;99.90;;;;;;5034515;28;20509;-70
2024/01/31 02:25:48;;;;;;;10.18;1.20;;;5.00;99.90;;;;;;5033745;28;20522;-71
2024/01/31 02:28:14;;;;;;;3.60;0.80;;;5.00;99.90;;;;;;5045434;28;20090;-69
2024/01/31 02:30:40;;;;;;;3.75;0.60;;;5.00;99.90;;;;;;5048981;28;20071;-70
2024/01/31 02:33:06;;;;;;;2.70;0.75;;;5.00;99.90;;;;;;5038361;28;20037;-71
2024/01/31 02:35:33;;;;;;;5.35;0.70;;;5.00;99.90;;;;;;5043814;28;20186;-69
2024/01/31 02:38:02;;;;;;;4.13;0.75;;;4.90;99.90;;;;;;5039077;28;20037;-70
2024/01/31 02:40:31;;;;;;;9.13;1.85;;;4.80;99.90;;;;;;5037661;28;20481;-70
2024/01/31 02:42:57;;;;;;;3.03;0.70;;;4.80;99.90;;;;;;5042391;28;20377;-70
2024/01/31 02:45:23;;;;;;;2.95;0.80;;;4.70;99.90;;;;;;5041454;28;20037;-70
2024/01/31 02:47:49;;;;;;;5.75;0.82;;;4.70;99.90;;;;;;5025169;28;20168;-70
2024/01/31 02:50:15;;;;;;;3.80;0.80;;;4.70;99.90;;;;;;5043839;28;20048;-70
2024/01/31 02:52:41;;;;;;;3.58;0.85;;;4.70;99.90;;;;;;5046945;28;20060;-69
2024/01/31 02:55:07;;;;;;;2.53;0.70;;;4.60;99.90;;;;;;5033041;28;20079;-70
2024/01/31 02:57:34;;;;;;;3.47;0.90;;;4.60;99.90;;;;;;5045305;28;20532;-69
2024/01/31 03:00:00;;;;;;;3.17;0.93;;;4.70;99.90;;;;;;5052815;28;20045;-70
2024/01/31 03:02:26;;;;;;;1.90;0.90;;;4.60;99.90;;;;;;5019582;28;20076;-70
2024/01/31 03:04:51;;;;;;;3.90;0.80;;;4.60;99.90;;;;;;5030366;28;20048;-69
2024/01/31 03:07:17;;;;;;;2.95;1.02;;;4.60;99.90;;;;;;5045631;28;20086;-70
2024/01/31 03:09:43;;;;;;;6.13;0.93;;;4.60;99.90;;;;;;5017930;28;20038;-70
2024/01/31 03:12:08;;;;;;;7.38;0.95;;;4.50;99.90;;;;;;5047342;28;20039;-70
2024/01/31 03:14:34;;;;;;;4.60;1.00;;;4.40;99.90;;;;;;5052973;28;20041;-69
2024/01/31 03:17:00;;;;;;;3.20;0.82;;;4.50;99.90;;;;;;5044533;28;20119;-70
2024/01/31 03:19:32;;;;;;;5.28;1.15;;;4.40;99.90;;;;;;5029423;28;20052;-71
2024/01/31 03:21:58;;;;;;;6.53;0.93;;;4.40;99.90;;;;;;5044527;28;20481;-70
2024/01/31 03:24:24;;;;;;;6.20;0.85;;;4.30;99.90;;;;;;5036303;28;20040;-70
2024/01/31 03:26:50;;;;;;;2.92;0.80;;;4.30;99.90;;;;;;5034093;28;20480;-70
2024/01/31 03:29:16;;;;;;;2.33;0.70;;;4.30;99.90;;;;;;5035853;28;20159;-70
2024/01/31 03:31:41;;;;;;;4.05;1.40;;;4.30;99.90;;;;;;5043351;28;20063;-70
2024/01/31 03:34:07;;;;;;;5.75;0.90;;;4.30;99.90;;;;;;5046996;28;20049;-69
2024/01/31 03:36:33;;;;;;;7.32;1.00;;;4.30;99.90;;;;;;5050954;28;20091;-70
2024/01/31 03:38:59;;;;;;;3.55;0.80;;;4.30;99.90;;;;;;5034361;28;20048;-70
2024/01/31 03:41:26;;;;;;;2.80;0.80;;;4.30;99.90;;;;;;5048048;28;20033;-70
2024/01/31 03:43:51;;;;;;;8.77;1.45;;;4.20;99.90;;;;;;5025114;28;20040;-71
2024/01/31 03:46:17;;;;;;;1.85;0.80;;;4.20;99.90;;;;;;5049235;28;20491;-70
2024/01/31 03:48:43;;;;;;;5.50;1.10;;;4.10;99.90;;;;;;5046484;28;20045;-69
2024/01/31 03:51:22;;;;;;;3.97;0.90;;;4.10;99.90;;;;;;5049194;28;20075;-70
2024/01/31 03:53:49;;;;;;;4.07;0.90;;;4.10;99.90;;;;;;5035223;28;20036;-69
2024/01/31 03:56:15;;;;;;;4.13;1.00;;;4.00;99.90;;;;;;5030417;28;20037;-70
2024/01/31 03:58:41;;;;;;;4.03;0.80;;;4.00;99.90;;;;;;5034174;28;20051;-70
2024/01/31 04:01:08;;;;;;;3.95;0.90;;;4.00;99.90;;;;;;5036136;28;20037;-69
2024/01/31 04:03:36;;;;;;;4.22;0.75;;;4.00;99.90;;;;;;5047972;28;20041;-70
2024/01/31 04:06:01;;;;;;;7.38;0.93;;;3.90;99.90;;;;;;5041249;28;20083;-70
2024/01/31 04:08:27;;;;;;;5.68;1.05;;;4.00;99.90;;;;;;5041937;28;20102;-69
2024/01/31 04:10:52;;;;;;;4.43;1.10;;;4.00;99.90;;;;;;5019011;28;20049;-70
2024/01/31 04:13:19;;;;;;;11.20;1.50;;;3.90;99.90;;;;;;5051261;28;20052;-70
2024/01/31 04:15:45;;;;;;;3.10;1.42;;;4.00;99.90;;;;;;5051689;28;20040;-69
2024/01/31 04:18:11;;;;;;;5.75;0.90;;;4.00;99.90;;;;;;5038603;28;20064;-70
2024/01/31 04:20:40;;;;;;;12.88;1.20;;;4.00;99.90;;;;;;5037384;28;20045;-70
2024/01/31 04:23:06;;;;;;;2.78;0.70;;;4.00;99.90;;;;;;5039252;28;20060;-70
2024/01/31 04:25:32;;;;;;;2.80;0.60;;;3.90;99.90;;;;;;5035416;28;20112;-70
2024/01/31 04:27:58;;;;;;;4.40;1.10;;;3.90;99.90;;;;;;5039490;28;20190;-69
2024/01/31 04:30:23;;;;;;;3.05;0.80;;;3.90;99.90;;;;;;5047499;28;20053;-70
2024/01/31 04:32:49;;;;;;;3.70;0.80;;;3.90;99.90;;;;;;5024138;28;20542;-70
2024/01/31 04:35:15;;;;;;;5.82;0.80;;;3.80;99.90;;;;;;5036927;28;20114;-71
2024/01/31 04:37:40;;;;;;;3.28;0.70;;;3.70;99.90;;;;;;5043387;28;20041;-70
2024/01/31 04:40:07;;;;;;;5.13;1.02;;;3.60;99.90;;;;;;5035178;28;20060;-70
2024/01/31 04:42:32;;;;;;;4.03;1.02;;;3.60;99.90;;;;;;5048833;28;20028;-70
2024/01/31 04:44:58;;;;;;;3.70;1.10;;;3.60;99.90;;;;;;5048436;28;20034;-70
2024/01/31 04:47:25;;;;;;;1.73;0.68;;;3.60;99.90;;;;;;5041984;28;20047;-70
2024/01/31 04:50:03;;;;;;;3.67;0.70;;;3.50;99.90;;;;;;5043865;28;20064;-70
2024/01/31 04:52:29;;;;;;;3.53;0.60;;;3.40;99.90;;;;;;5041170;28;20041;-69
2024/01/31 04:54:55;;;;;;;5.57;0.70;;;3.40;99.90;;;;;;5030756;28;20099;-70
2024/01/31 04:57:21;;;;;;;4.13;0.70;;;3.30;99.90;;;;;;5044413;28;20033;-70
2024/01/31 04:59:47;;;;;;;5.13;0.80;;;3.20;99.90;;;;;;5044938;28;20037;-70
2024/01/31 05:02:12;;;;;;;1.73;0.65;;;3.20;99.90;;;;;;5035203;28;20033;-70
2024/01/31 05:04:39;;;;;;;3.72;0.70;;;3.20;99.90;;;;;;5036916;28;20042;-70
2024/01/31 05:07:05;;;;;;;5.20;0.77;;;3.10;99.90;;;;;;5033428;28;20071;-70
2024/01/31 05:09:31;;;;;;;3.70;0.60;;;3.20;99.90;;;;;;5050469;28;20048;-70
2024/01/31 05:11:57;;;;;;;3.60;0.98;;;3.20;99.90;;;;;;5037020;28;20060;-69
2024/01/31 05:14:23;;;;;;;1.98;0.60;;;3.20;99.90;;;;;;5035353;28;20029;-70
2024/01/31 05:16:49;;;;;;;2.70;0.60;;;3.30;99.90;;;;;;5050563;28;20048;-69
2024/01/31 05:19:15;;;;;;;2.42;0.60;;;3.20;99.90;;;;;;5043599;28;20076;-70
2024/01/31 05:21:45;;;;;;;6.65;1.08;;;3.10;99.90;;;;;;5043389;28;20072;-70
2024/01/31 05:24:11;;;;;;;3.15;1.02;;;3.10;99.90;;;;;;5036226;28;20827;-70
2024/01/31 05:26:36;;;;;;;2.95;0.50;;;3.10;99.90;;;;;;5048350;28;20045;-70
2024/01/31 05:29:02;;;;;;;3.33;0.85;;;2.90;99.90;;;;;;5056451;28;20045;-70
2024/01/31 05:31:28;;;;;;;7.07;0.70;;;2.90;99.90;;;;;;5041367;28;20515;-70
2024/01/31 05:33:53;;;;;;;3.85;0.90;;;2.90;99.90;;;;;;5031116;28;20124;-69
2024/01/31 05:36:19;;;;;;;3.92;0.70;;;3.00;99.90;;;;;;5039484;28;20476;-70
2024/01/31 05:38:45;;;;;;;3.03;0.70;;;3.00;99.90;;;;;;5040501;28;20038;-69
2024/01/31 05:41:12;;;;;;;4.30;0.70;;;3.00;99.90;;;;;;5036349;28;20030;-70
2024/01/31 05:43:38;;;;;;;5.85;0.75;;;3.00;99.90;;;;;;5045039;28;20046;-70
2024/01/31 05:46:03;;;;;;;3.30;0.70;;;3.00;99.90;;;;;;5036099;28;20045;-70
2024/01/31 05:48:29;;;;;;;4.30;1.30;;;3.10;99.90;;;;;;5021714;28;20041;-70
2024/01/31 05:50:54;;;;;;;3.17;0.85;;;3.10;99.90;;;;;;5037917;28;20048;-70
2024/01/31 05:53:20;;;;;;;1.80;0.70;;;3.10;99.90;;;;;;5030378;28;20065;-69
2024/01/31 05:55:46;;;;;;;4.32;0.82;;;3.20;99.90;;;;;;5028486;28;21712;-70
2024/01/31 05:58:11;;;;;;;3.63;0.80;;;3.20;99.90;;;;;;5031375;28;20052;-70
2024/01/31 06:00:37;;;;;;;2.95;0.88;;;3.20;99.90;;;;;;5042043;28;20516;-70
2024/01/31 06:03:03;;;;;;;2.22;0.75;;;3.20;99.90;;;;;;5042715;28;20534;-70
2024/01/31 06:05:29;;;;;;;2.95;0.70;;;3.30;99.90;;;;;;5044235;28;20060;-71
2024/01/31 06:07:55;;;;;;;2.53;0.80;;;3.30;99.90;;;;;;5041837;28;20036;-71
2024/01/31 06:10:20;;;;;;;7.97;0.93;;;3.40;99.90;;;;;;5022747;28;20523;-70
2024/01/31 06:12:46;;;;;;;2.00;0.63;;;3.40;99.90;;;;;;5040030;28;20094;-69
2024/01/31 06:15:12;;;;;;;5.00;0.90;;;3.40;99.90;;;;;;5047287;28;20045;-70
2024/01/31 06:17:38;;;;;;;3.45;0.90;;;3.40;99.90;;;;;;5041270;28;20045;-69
2024/01/31 06:20:04;;;;;;;5.65;1.25;;;3.50;99.90;;;;;;5018952;28;20413;-70
2024/01/31 06:22:30;;;;;;;3.80;0.70;;;3.60;99.90;;;;;;5036532;28;20132;-69
2024/01/31 06:24:56;;;;;;;2.90;0.77;;;3.60;99.90;;;;;;5034561;28;20044;-70
2024/01/31 06:27:22;;;;;;;6.10;0.90;;;3.60;99.90;;;;;;5031537;28;21263;-70
2024/01/31 06:29:47;;;;;;;3.50;1.10;;;3.70;99.90;;;;;;5037724;28;20477;-70
2024/01/31 06:32:20;;;;;;;2.95;0.88;;;3.70;99.90;;;;;;5036433;28;20049;-71
2024/01/31 06:34:46;;;;;;;3.45;0.80;;;3.70;99.90;;;;;;5043852;28;20045;-70
2024/01/31 06:37:12;;;;;;;3.17;0.80;;;3.80;99.90;;;;;;5036188;28;20048;-70
2024/01/31 06:39:38;;;;;;;3.20;0.98;;;3.80;99.90;;;;;;5030751;28;20040;-70
2024/01/31 06:42:03;;;;;;;3.55;0.90;;;3.90;99.90;;;;;;5032628;28;20041;-70
2024/01/31 06:44:29;;;;;;;2.88;0.68;;;3.90;99.90;;;;;;5038787;28;20128;-70
2024/01/31 06:46:55;;;;;;;5.32;0.80;;;3.90;99.90;;;;;;5046504;28;20029;-69
2024/01/31 06:49:20;;;;;;;4.47;0.90;;;3.90;99.90;;;;;;5034538;28;20033;-69
2024/01/31 06:51:46;;;;;;;4.18;1.10;;;4.00;99.90;;;;;;5031935;28;20049;-70
2024/01/31 06:54:14;;;;;;;2.92;0.80;;;4.00;99.90;;;;;;5032951;28;20072;-69
2024/01/31 06:56:39;;;;;;;6.05;1.02;;;4.00;99.90;;;;;;5039469;28;20049;-68
2024/01/31 06:59:05;;;;;;;2.67;0.90;;;4.10;99.90;;;;;;5030052;28;20111;-70
2024/01/31 07:01:31;;;;;;;8.32;1.15;;;4.10;99.90;;;;;;5021804;28;20033;-70
2024/01/31 07:03:56;;;;;;;6.55;1.00;;;4.10;99.90;;;;;;5026318;28;20346;-67
2024/01/31 07:06:22;;;;;;;3.40;1.02;;;4.10;99.90;;;;;;5014801;28;20033;-67
2024/01/31 07:08:48;;;;;;;6.00;0.98;;;4.20;99.90;;;;;;5034685;28;20619;-66
2024/01/31 07:11:13;;;;;;;3.20;0.90;;;4.20;99.90;;;;;;5036132;28;20083;-66
2024/01/31 07:13:39;;;;;;;3.70;0.95;;;4.30;99.90;;;;;;5035163;28;20050;-68
2024/01/31 07:16:09;;;;;;;4.32;0.90;;;4.30;99.90;;;;;;5043496;28;20131;-67
2024/01/31 07:18:43;;;;;;;3.90;1.00;;;4.30;99.90;;;;;;5044344;28;20047;-66
2024/01/31 07:21:09;;;;;;;7.75;1.10;;;4.30;99.90;;;;;;5029785;28;20474;-67
2024/01/31 07:23:38;;;;;;;4.18;1.10;;;4.30;99.90;;;;;;5012196;28;20041;-67
2024/01/31 07:26:04;;;;;;;3.60;0.98;;;4.30;99.90;;;;;;5031195;28;20057;-68
2024/01/31 07:28:33;;;;;;;3.58;1.15;;;4.30;99.90;;;;;;5034823;28;20079;-68
2024/01/31 07:31:02;;;;;;;6.85;1.25;;;4.40;99.90;;;;;;5043637;28;20446;-67
2024/01/31 07:33:28;;;;;;;6.65;1.20;;;4.40;99.90;;;;;;5045214;28;20045;-68
2024/01/31 07:35:53;;;;;;;3.72;1.10;;;4.40;99.90;;;;;;5031261;28;20117;-68
2024/01/31 07:38:20;;;;;;;3.25;1.75;;;4.40;99.90;;;;;;5041729;28;20044;-68
2024/01/31 07:40:46;;;;;;;3.72;1.25;;;4.40;99.90;;;;;;5029198;28;20041;-67
2024/01/31 07:43:11;;;;;;;5.00;1.40;;;4.50;99.90;;;;;;5047536;28;20033;-68
2024/01/31 07:45:37;;;;;;;3.63;1.40;;;4.50;99.90;;;;;;5032094;28;20033;-68
2024/01/31 07:48:03;;;;;;;7.25;1.50;;;4.50;99.90;;;;;;5046308;28;20049;-68
2024/01/31 07:50:29;;;;;;;7.18;2.10;;;4.50;99.90;;;;;;5048302;28;20041;-68
2024/01/31 07:52:54;;;;;;;2.67;1.45;;;4.50;99.90;;;;;;5042212;28;20045;-66
2024/01/31 07:55:20;;;;;;;5.60;1.50;;;4.60;99.90;;;;;;5043237;28;20496;-68
2024/01/31 07:57:46;;;;;;;4.53;1.60;;;4.60;99.90;;;;;;5037181;28;20079;-68
2024/01/31 08:00:12;;;;;;;3.47;1.27;;;4.60;99.90;;;;;;5044302;28;20033;-68
2024/01/31 08:02:38;;;;;;;4.28;1.58;;;4.60;99.90;;;;;;5045750;28;20037;-68
2024/01/31 08:05:04;;;;;;;6.88;1.48;;;4.60;99.90;;;;;;5046119;28;20691;-68
2024/01/31 08:07:30;;;;;;;3.55;1.40;;;4.60;99.90;;;;;;5050440;28;20047;-67
2024/01/31 08:09:56;;;;;;;6.40;1.52;;;4.70;99.90;;;;;;5043325;28;20045;-68
2024/01/31 08:12:22;;;;;;;5.93;1.45;;;4.70;99.90;;;;;;5041726;28;20076;-68
2024/01/31 08:14:47;;;;;;;3.35;1.30;;;4.70;99.90;;;;;;5055066;28;20059;-68
2024/01/31 08:17:13;;;;;;;5.57;1.77;;;4.70;99.90;;;;;;5058791;28;20049;-67
2024/01/31 08:19:39;;;;;;;5.93;1.30;;;4.70;99.90;;;;;;5060944;28;20094;-68
2024/01/31 08:22:04;;;;;;;7.60;2.13;;;4.80;99.90;;;;;;5044706;28;20140;-67
2024/01/31 08:24:30;;;;;;;4.88;1.45;;;4.80;99.90;;;;;;5046827;28;20552;-68
2024/01/31 08:26:56;;;;;;;6.50;1.60;;;4.80;99.90;;;;;;5049344;28;20197;-68
2024/01/31 08:29:21;;;;;;;7.88;1.67;;;4.80;99.90;;;;;;5045083;28;20544;-69
2024/01/31 08:31:47;;;;;;;7.43;1.70;;;4.80;99.90;;;;;;5044916;28;20128;-67
2024/01/31 08:34:14;;;;;;;6.97;1.77;;;4.80;99.90;;;;;;5046711;28;20041;-67
2024/01/31 08:36:40;;;;;;;7.18;2.00;;;4.80;99.90;;;;;;5031312;28;20052;-68
2024/01/31 08:39:08;;;;;;;4.97;2.05;;;4.80;99.90;;;;;;5045105;28;20087;-67
2024/01/31 08:41:34;;;;;;;6.22;2.45;;;4.90;99.90;;;;;;5039935;28;20048;-67
2024/01/31 08:44:01;;;;;;;7.68;3.15;;;4.90;99.90;;;;;;5042070;28;20588;-67
2024/01/31 08:46:28;;;;;;;7.47;2.75;;;4.90;99.90;;;;;;5051066;28;20552;-67
2024/01/31 08:48:53;;;;;;;7.05;3.08;;;5.00;99.90;;;;;;5051519;28;20059;-66
2024/01/31 08:51:19;;;;;;;10.52;3.20;;;5.00;99.90;;;;;;5066985;28;20037;-67
2024/01/31 08:53:45;;;;;;;8.55;3.45;;;5.00;99.90;;;;;;5049362;28;20059;-66
2024/01/31 08:56:10;;;;;;;6.00;3.45;;;5.00;99.90;;;;;;5031820;28;20063;-68
2024/01/31 08:58:36;;;;;;;7.53;3.65;;;5.10;99.90;;;;;;5059140;28;20044;-67
2024/01/31 09:01:03;;;;;;;5.47;3.28;;;5.10;99.90;;;;;;5052592;28;20049;-68
2024/01/31 09:03:29;;;;;;;6.57;4.63;;;5.20;99.90;;;;;;5049692;28;20025;-68
2024/01/31 09:05:55;;;;;;;6.03;4.03;;;5.20;99.90;;;;;;5031780;28;20086;-68
2024/01/31 09:08:21;;;;;;;7.22;3.40;;;5.30;99.90;;;;;;5048121;28;20578;-68
2024/01/31 09:10:46;;;;;;;6.50;3.38;;;5.30;99.90;;;;;;5040441;28;20405;-68
2024/01/31 09:13:12;;;;;;;8.25;3.35;;;5.30;99.90;;;;;;5035608;28;20044;-68
2024/01/31 09:15:38;;;;;;;6.05;3.42;;;5.40;99.90;;;;;;5045370;28;20038;-67
2024/01/31 09:18:03;;;;;;;5.35;3.42;;;5.40;99.90;;;;;;5038933;28;20119;-68
2024/01/31 09:20:30;;;;;;;6.68;3.90;;;5.40;99.90;;;;;;5046951;28;20065;-68
2024/01/31 09:22:56;;;;;;;7.15;3.90;;;5.40;99.90;;;;;;5048787;28;20095;-66
2024/01/31 09:25:21;;;;;;;9.40;3.97;;;5.50;99.90;;;;;;5033035;28;20045;-67
2024/01/31 09:27:47;;;;;;;7.28;3.92;;;5.50;99.90;;;;;;5051913;28;20487;-67
2024/01/31 09:30:13;;;;;;;7.32;4.00;;;5.60;99.90;;;;;;5031289;28;20057;-68
2024/01/31 09:32:39;;;;;;;10.10;4.40;;;5.50;99.90;;;;;;5049541;28;20496;-67
2024/01/31 09:35:06;;;;;;;5.80;4.03;;;5.60;99.90;;;;;;5051101;28;20045;-67
2024/01/31 09:37:34;;;;;;;6.40;3.92;;;5.60;99.90;;;;;;5051234;28;20033;-69
2024/01/31 09:40:00;;;;;;;8.07;4.13;;;5.70;99.90;;;;;;5047147;28;20113;-68
2024/01/31 09:42:27;;;;;;;6.13;4.03;;;5.70;99.90;;;;;;5046918;28;20555;-67
2024/01/31 09:44:55;;;;;;;9.52;4.28;;;5.80;99.90;;;;;;5035361;28;20488;-68
2024/01/31 09:47:27;;;;;;;6.30;4.25;;;5.80;99.90;;;;;;5052581;28;20044;-67
2024/01/31 09:49:56;;;;;;;6.38;4.13;;;5.80;99.90;;;;;;5050532;28;20128;-67
2024/01/31 09:52:28;;;;;;;5.03;3.58;;;5.90;99.90;;;;;;5047397;28;20032;-67
2024/01/31 09:55:01;;;;;;;8.55;3.85;;;5.90;99.90;;;;;;5048092;28;20048;-67
2024/01/31 09:57:27;;;;;;;10.00;4.28;;;6.00;99.90;;;;;;5050656;28;20037;-67
2024/01/31 09:59:56;;;;;;;7.82;4.50;;;6.00;99.90;;;;;;5051568;28;20061;-67
2024/01/31 10:02:22;;;;;;;7.88;3.80;;;6.10;99.90;;;;;;5047337;28;20033;-67
2024/01/31 10:04:51;;;;;;;4.93;3.63;;;6.10;99.90;;;;;;5049921;28;20047;-67
2024/01/31 10:07:28;;;;;;;6.45;4.15;;;6.10;99.90;;;;;;5050877;28;20381;-67
2024/01/31 10:09:55;;;;;;;7.05;3.90;;;6.10;99.90;;;;;;5030748;28;20441;-67
2024/01/31 10:12:22;;;;;;;6.55;4.07;;;6.10;99.90;;;;;;5048535;28;20080;-67
2024/01/31 10:14:48;;;;;;;7.57;4.00;;;6.10;99.90;;;;;;5049365;28;20055;-67
2024/01/31 10:17:21;;;;;;;5.68;3.83;;;6.10;99.90;;;;;;5051362;28;20120;-67
2024/01/31 10:19:48;;;;;;;6.95;4.32;;;6.20;99.90;;;;;;5047985;28;20126;-66
2024/01/31 10:22:13;;;;;;;5.28;3.90;;;6.10;99.90;;;;;;5048343;28;20033;-67
2024/01/31 10:24:39;;;;;;;7.35;4.10;;;6.10;99.90;;;;;;5044299;28;20406;-67
2024/01/31 10:27:06;;;;;;;6.35;3.80;;;6.20;99.90;;;;;;5050912;28;20174;-67
2024/01/31 10:29:32;;;;;;;5.22;3.50;;;6.20;99.90;;;;;;5050883;28;20045;-67
2024/01/31 10:32:00;;;;;;;6.47;3.78;;;6.20;99.90;;;;;;5050683;28;20057;-67
2024/01/31 10:34:27;;;;;;;6.57;3.60;;;6.30;99.90;;;;;;5045190;28;20044;-67
2024/01/31 10:36:55;;;;;;;7.18;4.20;;;6.40;99.90;;;;;;5054303;28;20041;-68
2024/01/31 10:39:20;;;;;;;6.05;3.80;;;6.40;99.90;;;;;;5027449;28;20076;-68
2024/01/31 10:41:48;;;;;;;7.03;3.60;;;6.40;99.90;;;;;;5050433;28;20075;-68
2024/01/31 10:44:14;;;;;;;6.35;3.75;;;6.50;99.90;;;;;;5047769;28;20072;-67
2024/01/31 10:46:46;;;;;;;6.13;3.67;;;6.50;99.90;;;;;;5050650;28;20119;-68
2024/01/31 10:49:13;;;;;;;6.35;3.63;;;6.50;99.90;;;;;;5032997;28;20037;-67
2024/01/31 10:51:40;;;;;;;7.13;3.97;;;6.50;99.90;;;;;;5039273;28;20049;-69
2024/01/31 10:54:08;;;;;;;6.32;3.63;;;6.50;99.90;;;;;;5035410;28;20887;-67
2024/01/31 10:56:34;;;;;;;7.18;4.43;;;6.60;99.90;;;;;;5048288;28;20052;-67
2024/01/31 10:59:00;;;;;;;7.38;3.95;;;6.50;99.90;;;;;;5037499;28;20045;-67
2024/01/31 11:01:30;;;;;;;5.40;4.10;;;6.50;99.90;;;;;;5057190;28;20384;-66
2024/01/31 11:03:55;;;;;;;7.50;4.13;;;6.60;99.90;;;;;;5037402;28;20079;-67
2024/01/31 11:06:24;;;;;;;8.32;3.75;;;6.50;99.90;;;;;;5044729;28;20404;-67
2024/01/31 11:08:50;;;;;;;7.55;4.00;;;6.50;99.90;;;;;;5040989;28;20079;-66
2024/01/31 11:11:19;;;;;;;7.63;4.25;;;6.50;99.90;;;;;;5052518;28;20348;-67
2024/01/31 11:13:45;;;;;;;5.65;4.05;;;6.60;99.90;;;;;;5047882;28;20495;-67
2024/01/31 11:16:11;;;;;;;8.10;4.93;;;6.70;99.90;;;;;;5048809;28;20040;-67
2024/01/31 11:18:36;;;;;;;9.20;4.97;;;6.70;99.90;;;;;;5048344;28;20041;-67
2024/01/31 11:21:10;;;;;;;10.40;4.60;;;6.70;99.90;;;;;;5031060;28;20041;-67
2024/01/31 11:23:35;;;;;;;6.28;5.00;;;6.70;99.90;;;;;;5038067;28;20061;-67
2024/01/31 11:26:02;;;;;;;8.02;5.72;;;6.70;99.90;;;;;;5044711;28;20096;-67
2024/01/31 11:28:28;;;;;;;7.68;5.70;;;6.70;99.90;;;;;;5049767;28;20029;-67
2024/01/31 11:30:54;;;;;;;7.82;5.32;;;6.70;99.90;;;;;;5033292;28;20106;-67
2024/01/31 11:33:21;;;;;;;9.95;6.00;;;6.70;99.90;;;;;;5049642;28;20053;-68
2024/01/31 11:35:47;;;;;;;6.97;5.45;;;6.70;99.90;;;;;;5044440;28;20047;-68
2024/01/31 11:38:13;;;;;;;6.88;5.40;;;6.70;99.90;;;;;;5047224;28;20793;-67
2024/01/31 11:40:39;;;;;;;7.57;5.60;;;6.70;99.90;;;;;;5046728;28;20059;-66
2024/01/31 11:43:05;;;;;;;8.80;5.32;;;6.80;99.90;;;;;;5052009;28;20033;-68
2024/01/31 11:45:31;;;;;;;8.57;5.50;;;6.80;99.90;;;;;;5050130;28;20178;-68
2024/01/31 11:47:57;;;;;;;9.18;5.68;;;6.80;99.90;;;;;;5029236;28;20469;-66
2024/01/31 11:50:25;;;;;;;7.15;5.03;;;6.80;99.90;;;;;;5053365;28;20102;-67
2024/01/31 11:52:51;;;;;;;9.20;5.63;;;6.80;99.90;;;;;;5051689;28;20102;-67
2024/01/31 11:55:29;;;;;;;8.27;6.00;;;6.80;99.90;;;;;;5049499;28;20044;-68
2024/01/31 11:57:54;;;;;;;10.60;7.35;;;6.80;99.90;;;;;;5053633;28;20469;-67
2024/01/31 12:00:21;;;;;;;11.77;7.13;;;6.70;99.90;;;;;;5053585;28;20044;-68
2024/01/31 12:02:49;;;;;;;10.80;6.55;;;6.70;99.90;;;;;;5053092;28;20098;-68
2024/01/31 12:05:15;;;;;;;14.18;7.50;;;6.70;99.90;;;;;;5035067;28;20041;-65
2024/01/31 12:07:41;;;;;;;10.65;7.78;;;6.60;99.90;;;;;;5033783;28;20469;-67
2024/01/31 12:10:07;;;;;;;11.85;7.32;;;6.50;99.90;;;;;;5049228;28;20062;-68
2024/01/31 12:12:41;;;;;;;10.77;6.40;;;6.60;99.90;;;;;;5053176;28;20087;-68
2024/01/31 12:15:09;;;;;;;8.82;6.35;;;6.60;99.90;;;;;;5053131;28;20049;-67
2024/01/31 12:17:35;;;;;;;8.98;6.28;;;6.60;99.90;;;;;;5051101;28;20041;-68
2024/01/31 12:20:05;;;;;;;9.93;6.38;;;6.60;99.90;;;;;;5052222;28;20041;-68
2024/01/31 12:22:32;;;;;;;10.18;6.18;;;6.70;99.90;;;;;;5052902;28;20123;-69
2024/01/31 12:25:00;;;;;;;12.50;6.05;;;6.70;99.90;;;;;;5049855;28;20033;-68
2024/01/31 12:27:27;;;;;;;10.50;6.50;;;6.70;99.90;;;;;;5050470;28;20385;-68
2024/01/31 12:29:52;;;;;;;8.23;6.50;;;6.80;99.90;;;;;;5052239;28;20473;-68
2024/01/31 12:32:18;;;;;;;10.98;7.13;;;6.80;99.90;;;;;;5053242;28;20052;-68
2024/01/31 12:34:43;;;;;;;11.63;6.50;;;6.80;99.90;;;;;;5052188;28;20037;-68
2024/01/31 12:37:09;;;;;;;10.18;5.95;;;6.80;99.90;;;;;;5052176;28;20110;-67
2024/01/31 12:39:35;;;;;;;10.50;6.43;;;6.80;99.90;;;;;;5046853;28;20409;-68
2024/01/31 12:42:02;;;;;;;9.88;5.65;;;6.90;99.90;;;;;;5052780;28;20036;-68
2024/01/31 12:44:27;;;;;;;8.48;5.95;;;6.90;99.90;;;;;;5053484;28;20040;-68
2024/01/31 12:46:53;;;;;;;8.20;5.53;;;6.90;99.90;;;;;;5051959;28;20422;-68
2024/01/31 12:49:19;;;;;;;8.52;5.57;;;6.90;99.90;;;;;;5042775;28;20040;-68
2024/01/31 12:51:45;;;;;;;10.43;6.85;;;6.90;99.90;;;;;;5035759;28;20041;-70